ENTC/TOS METAR and TAF weather

Enter ICAO airport designator
Station Type Date Time Source
ENTC METAR 2018/12/13 15:20 UTC NOAA

ENTC 131520Z 22024KT 9999 SCT030 BKN040 05/01 Q1023 TEMPO 22020G30KT RADZ RMK WIND 2600FT /////KT


Station Type Date Time Source
ENTC Decoded METAR 2018/12/13 15:20 UTC NOAA

Tromso / Langnes, Norway (ENTC) 69-41N 018-55E 10M
Dec 13, 2018 - 10:20 AM EST / 2018.12.13 1520 UTC
Wind: from the SW (220 degrees) at 28 MPH (24 KT):0
Visibility: greater than 7 mile(s):0
Sky conditions: mostly cloudy
Temperature: 41 F (5 C)
Dew Point: 33 F (1 C)
Relative Humidity: 75%
Pressure (altimeter): 30.21 in. Hg (1023 hPa)
ob: ENTC 131520Z 22024KT 9999 SCT030 BKN040 05/01 Q1023 TEMPO 22020G30KT RADZ RMK WIND 2600FT /////KT
cycle: 15

Station Type Date Time Source
ENTC TAF 2018/12/13 12:57 UTC NOAA

TAF ENTC 131100Z 1312/1412 21018KT 9999 FEW020 BKN040 PROB30
TEMPO 1312/1318 24020G30KT
TEMPO 1312/1406 RADZ
TEMPO 1406/1412 21008KT


Example: see airport list